createdAt,value
2023-03-26T00:00:54.270Z,99673.66
2023-03-26T00:06:03.481Z,99681.44
2023-03-26T00:11:06.425Z,99684.94
2023-03-26T00:16:08.676Z,99695.34
2023-03-26T00:21:12.885Z,99703.13
2023-03-26T00:26:15.570Z,99702.25
2023-03-26T00:31:17.585Z,99702.25
2023-03-26T00:36:20.863Z,99705.72
2023-03-26T00:41:25.923Z,99708.31
2023-03-26T00:46:28.848Z,99706.56
2023-03-26T00:51:33.258Z,99702.25
2023-03-26T00:56:35.155Z,99710.06
2023-03-26T01:01:37.635Z,99709.19
2023-03-26T01:06:43.283Z,99713.50
2023-03-26T01:11:45.120Z,99706.59
2023-03-26T01:16:49.850Z,99719.63
2023-03-26T01:21:53.010Z,99721.31
2023-03-26T01:27:25.819Z,99721.31
2023-03-26T01:32:37.862Z,99729.16
2023-03-26T01:37:43.637Z,99727.41
2023-03-26T01:42:49.004Z,99740.41
2023-03-26T01:47:50.855Z,99732.63
2023-03-26T01:52:52.583Z,99731.72
2023-03-26T01:57:59.732Z,99737.81
2023-03-26T02:03:18.139Z,99740.41
2023-03-26T02:08:22.767Z,99736.94
2023-03-26T02:13:26.237Z,99728.28
2023-03-26T02:18:36.692Z,99730.91
2023-03-26T02:23:40.212Z,99734.38
2023-03-26T02:28:43.241Z,99733.50
2023-03-26T02:33:47.518Z,99737.88
2023-03-26T02:38:50.106Z,99736.13
2023-03-26T02:43:53.162Z,99735.25
2023-03-26T02:48:58.811Z,99737.00
2023-03-26T02:54:01.131Z,99730.94
2023-03-26T02:59:25.704Z,99735.28
2023-03-26T03:04:47.403Z,99734.38
2023-03-26T03:09:50.637Z,99730.06
2023-03-26T03:15:16.796Z,99730.91
2023-03-26T03:20:18.800Z,99739.56
2023-03-26T03:25:22.096Z,99730.94
2023-03-26T03:30:25.916Z,99736.09
2023-03-26T03:35:48.956Z,99745.63
2023-03-26T03:40:51.156Z,99749.09
2023-03-26T03:45:54.989Z,99741.28
2023-03-26T03:51:18.335Z,99741.25
2023-03-26T03:56:36.076Z,99739.50
2023-03-26T04:01:59.147Z,99750.72
2023-03-26T04:07:07.833Z,99742.03
2023-03-26T04:12:30.934Z,99739.47
2023-03-26T04:17:42.334Z,99738.66
2023-03-26T04:22:45.665Z,99736.06
2023-03-26T04:27:49.970Z,99730.88
2023-03-26T04:33:00.791Z,99723.94
2023-03-26T04:38:07.140Z,99727.44
2023-03-26T04:43:13.453Z,99731.78
2023-03-26T04:48:32.756Z,99723.97
2023-03-26T04:53:35.127Z,99735.25
2023-03-26T04:59:01.746Z,99730.03
2023-03-26T05:04:08.229Z,99719.66
2023-03-26T05:09:10.671Z,99724.00
2023-03-26T05:14:44.870Z,99727.47
2023-03-26T05:19:53.665Z,99723.13
2023-03-26T05:24:56.213Z,99725.72
2023-03-26T05:30:00.698Z,99724.88
2023-03-26T05:35:04.736Z,99729.19
2023-03-26T05:40:12.228Z,99718.81
2023-03-26T05:45:43.487Z,99713.56
2023-03-26T05:50:55.695Z,99720.50
2023-03-26T05:55:58.554Z,99715.31
2023-03-26T06:01:19.595Z,99714.44
2023-03-26T06:06:57.633Z,99711.00
2023-03-26T06:11:59.799Z,99705.81
2023-03-26T06:17:04.762Z,99704.81
2023-03-26T06:22:27.236Z,99696.13
2023-03-26T06:27:47.294Z,99699.56
2023-03-26T06:33:04.294Z,99701.38
2023-03-26T06:38:14.186Z,99693.53
2023-03-26T06:43:16.228Z,99699.59
2023-03-26T06:48:33.353Z,99697.00
2023-03-26T06:53:48.390Z,99704.81
2023-03-26T06:58:54.837Z,99710.84
2023-03-26T07:04:31.635Z,99713.47
2023-03-26T07:09:53.551Z,99711.69
2023-03-26T07:15:13.872Z,99710.81
2023-03-26T07:20:39.019Z,99708.19
2023-03-26T07:25:42.651Z,99696.81
2023-03-26T07:31:00.283Z,99685.38
2023-03-26T07:36:18.144Z,99694.63
2023-03-26T07:41:43.565Z,99680.56
2023-03-26T07:47:26.153Z,99683.06
2023-03-26T07:52:50.158Z,99682.28
2023-03-26T07:58:11.588Z,99678.84
2023-03-26T08:03:50.928Z,99686.63
2023-03-26T08:09:13.380Z,99680.38
2023-03-26T08:14:40.896Z,99675.13
2023-03-26T08:19:54.171Z,99681.28
2023-03-26T08:25:05.225Z,99673.16
2023-03-26T08:30:11.145Z,99670.84
2023-03-26T08:35:13.545Z,99667.69
2023-03-26T08:40:18.344Z,99670.47
2023-03-26T08:45:51.377Z,99684.94
2023-03-26T08:51:07.668Z,99674.19
2023-03-26T08:56:09.972Z,99683.34
2023-03-26T09:01:46.535Z,99680.63
2023-03-26T09:06:57.635Z,99684.53
2023-03-26T09:12:23.749Z,99688.06
2023-03-26T09:17:51.309Z,99681.84
2023-03-26T09:23:03.581Z,99674.66
2023-03-26T09:28:21.919Z,99667.09
2023-03-26T09:33:56.751Z,99674.16
2023-03-26T09:39:04.722Z,99690.09
2023-03-26T09:44:39.064Z,99691.78
2023-03-26T09:49:45.870Z,99677.13
2023-03-26T09:55:02.596Z,99665.00
2023-03-26T10:00:10.012Z,99669.66
2023-03-26T10:05:24.545Z,99657.44
2023-03-26T10:10:30.990Z,99664.56
2023-03-26T10:15:34.352Z,99665.91
2023-03-26T10:20:43.469Z,99668.31
2023-03-26T10:25:54.222Z,99659.13
2023-03-26T10:31:17.236Z,99666.16
2023-03-26T10:36:29.487Z,99655.94
2023-03-26T10:41:35.194Z,99634.75
2023-03-26T10:46:44.020Z,99616.84
2023-03-26T10:51:51.193Z,99613.19
2023-03-26T10:56:56.600Z,99607.34
2023-03-26T11:02:05.499Z,99607.94
2023-03-26T11:07:11.823Z,99604.84
2023-03-26T11:12:26.371Z,99602.94
2023-03-26T11:17:41.766Z,99614.56
2023-03-26T11:22:50.624Z,99624.56
2023-03-26T11:28:00.267Z,99628.06
2023-03-26T11:33:03.370Z,99629.81
2023-03-26T11:38:06.687Z,99624.84
2023-03-26T11:43:11.648Z,99626.16
2023-03-26T11:48:14.734Z,99626.16
2023-03-26T11:53:19.224Z,99625.72
2023-03-26T11:58:27.792Z,99619.56
2023-03-26T12:03:30.329Z,99616.69
2023-03-26T12:08:34.194Z,99608.41
2023-03-26T12:13:42.130Z,99605.59
2023-03-26T12:18:44.253Z,99602.75
2023-03-26T12:23:58.332Z,99610.59
2023-03-26T12:29:05.872Z,99603.00
2023-03-26T12:34:13.381Z,99597.53
2023-03-26T12:40:09.044Z,99601.78
2023-03-26T12:45:00.802Z,99605.88
2023-03-26T12:50:05.798Z,99608.09
2023-03-26T12:55:14.787Z,99612.28
2023-03-26T13:00:25.902Z,99608.47
2023-03-26T13:05:34.247Z,99601.66
2023-03-26T13:10:51.611Z,99601.19
2023-03-26T13:15:56.555Z,99588.44
2023-03-26T13:21:02.002Z,99586.31
2023-03-26T13:26:10.373Z,99578.41
2023-03-26T13:31:17.815Z,99591.66
2023-03-26T13:36:24.296Z,99579.69
2023-03-26T13:41:31.514Z,99574.09
2023-03-26T13:46:36.175Z,99565.28
2023-03-26T13:51:39.796Z,99573.63
2023-03-26T13:56:43.698Z,99573.63
2023-03-26T14:01:51.153Z,99567.66
2023-03-26T14:06:57.215Z,99562.44
2023-03-26T14:12:33.846Z,99553.97
2023-03-26T14:17:39.236Z,99558.91
2023-03-26T14:22:46.185Z,99555.75
2023-03-26T14:27:54.329Z,99562.72
2023-03-26T14:33:05.864Z,99563.63
2023-03-26T14:38:39.762Z,99567.34
2023-03-26T14:43:55.431Z,99568.53
2023-03-26T14:49:05.727Z,99567.63
2023-03-26T14:54:11.122Z,99564.16
2023-03-26T14:59:23.049Z,99567.03
2023-03-26T15:05:00.771Z,99556.72
2023-03-26T15:10:26.774Z,99565.03
2023-03-26T15:15:54.070Z,99566.13
2023-03-26T15:21:29.175Z,99573.09
2023-03-26T15:26:59.159Z,99566.09
2023-03-26T15:32:30.207Z,99561.84
2023-03-26T15:38:20.829Z,99567.00
2023-03-26T15:43:23.860Z,99566.13
2023-03-26T15:48:32.324Z,99569.75
2023-03-26T15:53:36.599Z,99573.34
2023-03-26T15:58:44.991Z,99572.72
2023-03-26T16:03:51.094Z,99578.06
2023-03-26T16:08:57.251Z,99570.22
2023-03-26T16:14:12.409Z,99571.34
2023-03-26T16:19:36.120Z,99575.84
2023-03-26T16:24:38.545Z,99579.34
2023-03-26T16:30:08.716Z,99580.38
2023-03-26T16:35:33.462Z,99589.22
2023-03-26T16:40:35.992Z,99592.00
2023-03-26T16:45:42.561Z,99599.09
2023-03-26T16:50:46.459Z,99597.56
2023-03-26T16:55:52.786Z,99612.50
2023-03-26T17:01:04.703Z,99613.44
2023-03-26T17:06:26.177Z,99623.94
2023-03-26T17:11:31.436Z,99631.00
2023-03-26T17:16:36.088Z,99629.25
2023-03-26T17:21:45.527Z,99640.59
2023-03-26T17:26:52.424Z,99642.44
2023-03-26T17:32:00.445Z,99651.19
2023-03-26T17:37:03.191Z,99655.59
2023-03-26T17:42:16.172Z,99662.56
2023-03-26T17:47:23.651Z,99666.13
2023-03-26T17:52:26.052Z,99673.09
2023-03-26T17:57:32.594Z,99673.97
2023-03-26T18:02:37.118Z,99682.69
2023-03-26T18:07:56.159Z,99690.59
2023-03-26T18:13:04.586Z,99695.84
2023-03-26T18:18:13.215Z,99701.94
2023-03-26T18:23:22.077Z,99719.38
2023-03-26T18:28:31.589Z,99721.16
2023-03-26T18:33:42.069Z,99722.91
2023-03-26T18:38:45.030Z,99727.25
2023-03-26T18:43:46.849Z,99743.78
2023-03-26T18:48:49.859Z,99749.00
2023-03-26T18:53:52.593Z,99754.28
2023-03-26T18:58:57.524Z,99754.28
2023-03-26T19:04:03.586Z,99762.13
2023-03-26T19:09:13.472Z,99759.53
2023-03-26T19:14:22.129Z,99768.22
2023-03-26T19:19:26.292Z,99772.56
2023-03-26T19:24:28.023Z,99788.13
2023-03-26T19:29:31.497Z,99795.91
2023-03-26T19:34:35.332Z,99796.78
2023-03-26T19:39:40.203Z,99799.38
2023-03-26T19:44:42.309Z,99805.41
2023-03-26T19:49:50.957Z,99809.78
2023-03-26T19:55:00.227Z,99814.06
2023-03-26T20:00:02.382Z,99823.56
2023-03-26T20:05:11.618Z,99828.66
2023-03-26T20:10:13.402Z,99832.03
2023-03-26T20:15:19.273Z,99826.81
2023-03-26T20:20:24.814Z,99837.13
2023-03-26T20:25:30.966Z,99846.56
2023-03-26T20:30:37.803Z,99844.75
2023-03-26T20:35:42.219Z,99848.19
2023-03-26T20:40:45.126Z,99855.13
2023-03-26T20:45:48.437Z,99863.75
2023-03-26T20:50:51.569Z,99869.81
2023-03-26T20:55:53.248Z,99877.59
2023-03-26T21:00:55.689Z,99885.34
2023-03-26T21:06:01.307Z,99879.28
2023-03-26T21:11:03.742Z,99889.66
2023-03-26T21:16:06.489Z,99889.56
2023-03-26T21:21:21.729Z,99897.34
2023-03-26T21:26:26.308Z,99899.94
2023-03-26T21:31:30.862Z,99923.22
2023-03-26T21:36:35.163Z,99924.09
2023-03-26T21:41:41.575Z,99931.84
2023-03-26T21:46:43.872Z,99937.03
2023-03-26T21:51:48.738Z,99945.69
2023-03-26T21:56:56.829Z,99962.13
2023-03-26T22:02:01.123Z,99967.34
2023-03-26T22:07:05.712Z,99975.16
2023-03-26T22:12:07.478Z,99978.63
2023-03-26T22:17:09.173Z,99982.94
2023-03-26T22:22:12.484Z,99992.44
2023-03-26T22:27:15.958Z,99995.84
2023-03-26T22:32:17.636Z,99995.78
2023-03-26T22:37:20.638Z,100002.53
2023-03-26T22:42:22.392Z,100020.63
2023-03-26T22:47:24.852Z,100030.97
2023-03-26T22:52:27.999Z,100031.75
2023-03-26T22:57:29.663Z,100037.66
2023-03-26T23:02:31.381Z,100050.53
2023-03-26T23:07:34.564Z,100060.72
2023-03-26T23:12:36.316Z,100069.44
2023-03-26T23:17:38.335Z,100072.75
2023-03-26T23:22:41.410Z,100079.59
2023-03-26T23:27:43.128Z,100093.38
2023-03-26T23:32:44.831Z,100101.16
2023-03-26T23:37:50.734Z,100118.41
2023-03-26T23:42:52.405Z,100118.38
2023-03-26T23:47:54.118Z,100127.75
2023-03-26T23:52:58.130Z,100144.97
2023-03-26T23:57:59.822Z,100152.56
